Time;durP1;ratioP1;P1;durP2;ratioP2;P2;SDS_P1;SDS_P2;PMS_P1;PMS_P2;Temp;Humidity;BMP_temperature;BMP_pressure;BME280_temperature;BME280_humidity;BME280_pressure;Samples;Min_cycle;Max_cycle;Signal;HPM_P1;HPM_P2
2023/07/05 16:04:50;;;;;;;7.05;3.17;;;22.40;99.90;;;;;;5088704;28;20500;-70
2023/07/05 16:07:16;;;;;;;5.70;3.25;;;21.40;99.90;;;;;;5088152;28;20526;-67
2023/07/05 16:09:41;;;;;;;8.18;4.00;;;20.80;99.90;;;;;;5087280;28;20476;-68
2023/07/05 16:12:08;;;;;;;8.23;3.97;;;20.30;99.90;;;;;;5088101;28;20032;-67
2023/07/05 16:14:33;;;;;;;8.93;4.03;;;20.10;99.90;;;;;;5086486;28;20021;-68
2023/07/05 16:16:59;;;;;;;7.93;2.88;;;20.50;99.90;;;;;;5088295;28;20411;-67
2023/07/05 16:19:24;;;;;;;9.00;3.50;;;21.20;99.90;;;;;;5087546;28;20066;-67
2023/07/05 16:21:50;;;;;;;6.00;3.28;;;21.60;99.90;;;;;;5087526;28;20016;-68
2023/07/05 16:24:16;;;;;;;6.97;3.20;;;22.10;99.90;;;;;;5087260;28;20037;-67
2023/07/05 16:26:41;;;;;;;9.70;2.80;;;22.40;99.90;;;;;;5087918;28;20024;-66
2023/07/05 16:29:07;;;;;;;6.80;2.72;;;23.00;99.90;;;;;;5087736;28;20024;-67
2023/07/05 16:31:33;;;;;;;4.43;2.30;;;23.60;99.90;;;;;;5086613;28;20020;-66
2023/07/05 16:33:59;;;;;;;5.20;2.65;;;24.00;99.90;;;;;;5087498;28;20024;-66
2023/07/05 16:36:30;;;;;;;9.10;3.95;;;24.40;99.90;;;;;;5087722;28;20008;-68
2023/07/05 16:38:56;;;;;;;;;;;24.70;99.90;;;;;;5088172;28;20994;-67
2023/07/05 16:41:23;;;;;;;3.47;2.08;;;24.90;99.90;;;;;;5086791;28;19912;-69
2023/07/05 16:43:49;;;;;;;5.53;1.85;;;25.30;99.90;;;;;;5081978;28;20036;-67
2023/07/05 16:46:16;;;;;;;9.60;3.42;;;25.60;99.90;;;;;;5086755;28;20058;-68
2023/07/05 16:48:45;;;;;;;8.25;2.58;;;24.90;99.90;;;;;;5086722;28;20181;-67
2023/07/05 16:51:16;;;;;;;6.15;2.63;;;24.20;99.90;;;;;;5085849;28;20020;-67
2023/07/05 16:53:42;;;;;;;5.97;2.58;;;24.20;99.90;;;;;;5087368;28;20518;-67
2023/07/05 16:56:09;;;;;;;6.97;2.28;;;24.60;99.90;;;;;;5085536;28;20021;-68
2023/07/05 16:58:35;;;;;;;4.95;2.28;;;24.80;99.90;;;;;;5087604;28;20059;-67
2023/07/05 17:01:10;;;;;;;7.32;2.78;;;24.70;99.90;;;;;;5087489;28;20035;-67
2023/07/05 17:03:38;;;;;;;5.32;2.00;;;24.60;99.90;;;;;;5085237;28;20040;-68
2023/07/05 17:06:05;;;;;;;5.80;2.22;;;24.80;99.90;;;;;;5085701;28;20480;-69
2023/07/05 17:08:34;;;;;;;6.93;2.55;;;25.30;99.90;;;;;;5086276;28;20028;-68
2023/07/05 17:11:01;;;;;;;5.93;2.40;;;25.60;98.70;;;;;;5086854;28;20024;-67
2023/07/05 17:13:28;;;;;;;5.75;2.45;;;25.50;96.70;;;;;;5087362;28;20024;-66
2023/07/05 17:15:58;;;;;;;4.28;2.05;;;25.00;96.00;;;;;;5075252;28;20017;-68
2023/07/05 17:18:25;;;;;;;8.68;2.38;;;23.80;97.70;;;;;;5073095;28;20107;-69
2023/07/05 17:20:59;;;;;;;7.97;2.90;;;22.70;99.60;;;;;;5074228;28;20044;-67
2023/07/05 17:23:26;;;;;;;4.95;2.80;;;21.70;99.90;;;;;;5073472;28;20392;-67
2023/07/05 17:26:12;;;;;;;4.03;2.72;;;20.90;99.90;;;;;;5072816;28;20427;-67
2023/07/05 17:28:43;;;;;;;6.13;2.63;;;20.40;99.90;;;;;;5073362;28;20039;-70
2023/07/05 17:31:14;;;;;;;6.82;2.42;;;20.00;99.90;;;;;;5073228;28;21067;-66
2023/07/05 17:33:40;;;;;;;6.90;2.75;;;19.60;99.90;;;;;;5073462;28;20024;-67
2023/07/05 17:36:09;;;;;;;7.72;2.40;;;19.30;99.90;;;;;;5071083;28;20071;-69
2023/07/05 17:38:36;;;;;;;5.18;2.30;;;19.10;99.90;;;;;;5072877;28;20027;-69
2023/07/05 17:41:03;;;;;;;5.57;2.20;;;18.90;99.90;;;;;;5073267;28;20280;-67
2023/07/05 17:43:32;;;;;;;6.03;1.95;;;18.60;99.90;;;;;;5072778;28;20032;-69
2023/07/05 17:46:22;;;;;;;4.93;2.08;;;18.40;99.90;;;;;;5073529;28;20127;-68
2023/07/05 17:48:51;;;;;;;4.63;2.10;;;18.30;99.90;;;;;;5073466;28;20052;-68
2023/07/05 17:51:17;;;;;;;2.33;1.70;;;18.10;99.90;;;;;;5073112;28;20028;-69
2023/07/05 17:53:43;;;;;;;3.88;2.17;;;18.00;99.90;;;;;;5072913;28;20024;-69
2023/07/05 17:56:11;;;;;;;6.05;2.30;;;18.00;99.90;;;;;;5071985;28;20024;-67
2023/07/05 17:58:38;;;;;;;4.38;1.95;;;17.90;99.90;;;;;;5072546;28;20106;-66
2023/07/05 18:01:09;;;;;;;4.28;2.40;;;17.90;99.90;;;;;;5073432;28;20127;-67
2023/07/05 18:03:39;;;;;;;4.07;2.25;;;17.90;99.90;;;;;;5073359;28;20045;-67
2023/07/05 18:06:06;;;;;;;3.13;2.00;;;17.80;99.90;;;;;;5072299;28;20107;-66
2023/07/05 18:08:32;;;;;;;4.22;1.98;;;18.00;99.90;;;;;;5073020;28;20078;-64
2023/07/05 18:11:00;;;;;;;5.78;1.67;;;18.90;99.90;;;;;;5071258;28;20499;-67
2023/07/05 18:13:29;;;;;;;2.92;1.85;;;19.90;99.90;;;;;;5072815;28;20444;-66
2023/07/05 18:16:01;;;;;;;2.38;1.60;;;20.70;99.90;;;;;;5072681;28;20025;-69
2023/07/05 18:18:29;;;;;;;4.93;1.70;;;21.50;99.90;;;;;;5072127;28;20016;-68
2023/07/05 18:20:55;;;;;;;3.00;1.63;;;22.40;99.90;;;;;;5072555;28;20020;-68
2023/07/05 18:23:25;;;;;;;2.22;1.40;;;23.00;98.30;;;;;;5072859;28;20051;-69
2023/07/05 18:25:55;;;;;;;2.25;1.42;;;23.30;96.90;;;;;;5070887;28;20052;-69
2023/07/05 18:28:22;;;;;;;3.28;1.75;;;23.50;96.50;;;;;;5072432;28;20502;-67
2023/07/05 18:31:00;;;;;;;2.55;1.63;;;23.90;95.70;;;;;;5070659;28;20024;-67
2023/07/05 18:33:27;;;;;;;2.72;1.35;;;24.00;93.90;;;;;;5071202;28;20544;-67
2023/07/05 18:35:54;;;;;;;2.33;1.40;;;23.80;93.20;;;;;;5070353;28;20056;-67
2023/07/05 18:38:22;;;;;;;2.20;1.30;;;23.40;93.40;;;;;;5072586;28;20104;-68
2023/07/05 18:40:48;;;;;;;3.30;1.20;;;23.10;94.00;;;;;;5072508;28;20020;-67
2023/07/05 18:43:16;;;;;;;3.85;1.80;;;23.20;93.80;;;;;;5072030;28;20572;-67
2023/07/05 18:45:44;;;;;;;3.30;1.58;;;23.00;94.30;;;;;;5072591;28;20030;-67
2023/07/05 18:48:12;;;;;;;2.03;1.30;;;22.30;94.50;;;;;;5072363;28;20012;-67
2023/07/05 18:50:40;;;;;;;3.47;1.65;;;21.50;96.20;;;;;;5072837;28;20040;-67
2023/07/05 18:53:08;;;;;;;2.10;1.35;;;20.80;98.10;;;;;;5072266;28;20028;-67
2023/07/05 18:55:37;;;;;;;2.78;1.63;;;20.30;99.90;;;;;;5071856;28;20024;-68
2023/07/05 18:58:04;;;;;;;3.00;1.80;;;19.90;99.90;;;;;;5070970;28;20457;-68
2023/07/05 19:00:30;;;;;;;4.38;1.95;;;19.50;99.90;;;;;;5071998;28;20358;-67
2023/07/05 19:02:55;;;;;;;4.85;2.33;;;19.20;99.90;;;;;;5070799;28;20042;-68
2023/07/05 19:05:22;;;;;;;4.75;2.17;;;19.00;99.90;;;;;;5072363;28;20033;-67
2023/07/05 19:07:48;;;;;;;3.55;2.03;;;18.80;99.90;;;;;;5070324;28;20105;-67
2023/07/05 19:10:14;;;;;;;3.92;2.05;;;18.60;99.90;;;;;;5072576;28;20477;-68
2023/07/05 19:12:40;;;;;;;4.05;1.67;;;18.50;99.90;;;;;;5072599;28;20512;-67
2023/07/05 19:15:06;;;;;;;3.85;2.00;;;18.30;99.90;;;;;;5071547;28;20029;-67
2023/07/05 19:17:32;;;;;;;3.28;1.95;;;18.20;99.90;;;;;;5072703;28;20021;-67
2023/07/05 19:19:58;;;;;;;4.10;1.90;;;18.10;99.90;;;;;;5072160;28;20384;-67
2023/07/05 19:22:25;;;;;;;4.00;2.10;;;18.00;99.90;;;;;;5072105;28;20105;-67
2023/07/05 19:24:51;;;;;;;7.22;3.03;;;17.90;99.90;;;;;;5071950;28;20055;-68
2023/07/05 19:27:18;;;;;;;4.88;2.60;;;17.80;99.90;;;;;;5070621;28;20024;-68
2023/07/05 19:29:43;;;;;;;5.13;2.70;;;17.70;99.90;;;;;;5069852;28;20028;-68
2023/07/05 19:32:12;;;;;;;5.03;2.60;;;17.60;99.90;;;;;;5072317;28;20423;-71
2023/07/05 19:34:37;;;;;;;4.78;2.35;;;17.60;99.90;;;;;;5072232;28;20553;-70
2023/07/05 19:37:03;;;;;;;3.67;2.25;;;17.50;99.90;;;;;;5071527;28;20099;-69
2023/07/05 19:39:29;;;;;;;4.57;2.10;;;17.40;99.90;;;;;;5070573;28;20021;-70
2023/07/05 19:41:55;;;;;;;3.63;2.40;;;17.30;99.90;;;;;;5071660;28;20095;-70
2023/07/05 19:44:20;;;;;;;4.32;2.42;;;17.30;99.90;;;;;;5071598;28;20668;-70
